logo
App data

上帝之城 I:监狱帝国 [City of God I - Prison Empire]

Hey, boy! I am the Deputy Mayor of Crist City. My secretary has already told you the purchasing price of the wardening position of Pompeii Prison, right? Come on son, make up your mind! There are a lot of people competing for this position. I don’t have time and patience to waste on you!
Store | Hub | SteamDB | Site
Developer: Pixel Gangsta Studio Publisher: Pixel Gangsta Studio, Flying Interactive
Genre: Indie, RPG, Simulation, Strategy
Languages: English, Simplified Chinese
Tags: Simulation (33), Indie (31), RPG (29), Strategy (24), Management (12), Early Access (7), Pixel Graphics (6)
Category: Single-player, Steam Trading Cards, Steam Cloud, Stats, Steam Leaderboards, Commentary available
Release date: Jul 9, 2018
Price: $18.99
Old userscore: 69% Owners: 50,000 .. 100,000
Followers: 0
Peak concurrent players yesterday: 50
Playtime in the last 2 weeks: 13:05 (average) 19:03 (median)
Playtime total: 19:18 (average) 14:34 (median)

Steam Spy is still in beta, so expect major bugs.

Owners data:

Access restricted.

This feature is only available to users with special access rights. Sorry.

If you want to proceed, you need to register or log in first and then back Steam Spy on Patreon. Look for Indie or Pro pledge.

Don't forget to use the same email as on Steam Spy!

Audience in 2 weeks:

Access restricted.

This feature is only available to users with special access rights. Sorry.

If you want to proceed, you need to register or log in first and then back Steam Spy on Patreon. Look for Indie or Pro pledge.

Don't forget to use the same email as on Steam Spy!

Peak daily concurrent players:

CCU data courtesy of SteamDB. Used with permission.

Hourly concurrent players:

Daily Twitch stats:

Hourly Twitch stats:

YouTube:

The views data is based on top 50 videos uploaded last week. Actual number of views might be more than the number shown.

The displayed number of videos uploaded yesterday is limited to 50, so if there were more videos uploaded, the number will still show 50.

If the game has commonly used word as its name (like "FEAR" or "Volume") its number of Youtube views might be wrong.

Games similar to this one:

# Game Release date
Price
Score rank
(Userscore / Metascore)
Owners
Players
Playtime (Median)
1 Pivvot Jul 14, 2014 $4.99N/A (N/A)0 .. 20,0001.92%00:05 (00:01)
2 RETSNOM Jul 23, 2015 $4.99N/A (N/A)0 .. 20,0000%00:00 (00:00)
3 Wayout Nov 4, 2016 $0.99N/A (N/A)50,000 .. 100,0001.59%01:47 (01:44)
4 Munin Jun 10, 2014 $4.99N/A (N/A/68%)100,000 .. 200,0000.3%00:01 (00:00)
5 Treeker: The Lost Glasses May 13, 2015 $8.99N/A (N/A)0 .. 20,0000%00:00 (00:00)
6 It Comes Around - A Kinetic Novel Sep 29, 2016 $2.99N/A (N/A)20,000 .. 50,0000.57%00:01 (00:00)
7 Ballpoint Universe - Infinite Dec 17, 2013 $3.99N/A (N/A)100,000 .. 200,0000%00:00 (00:00)
8 Canabalt Apr 30, 2015 $2.99N/A (N/A)20,000 .. 50,0000.89%00:01 (00:00)
9 Super Duper Party Pooper Jun 6, 2016 $0.99N/A (N/A/40%)100,000 .. 200,0000.22%03:49 (01:16)
10 Intake Nov 6, 2013 $9.99N/A (N/A)20,000 .. 50,0000%00:00 (00:00)
11 Porcunipine May 21, 2015 $9.99N/A (N/A)20,000 .. 50,0000%00:00 (00:00)
12 Moonstone Tavern - A Fantasy Tavern Sim! May 13, 2016 $7.99N/A (N/A)20,000 .. 50,0000%00:00 (00:00)
13 BIT.TRIP VOID Dec 19, 2012 $9.99N/A (N/A)20,000 .. 50,0001.09%03:03 (01:01)
14 On A Roll 3D Feb 12, 2015 $3.99N/A (N/A)50,000 .. 100,0000%00:00 (00:00)
15 Yon Paradox May 6, 2016 $2.99N/A (N/A)0 .. 20,0000%00:00 (00:00)
16 Pix the Cat Jan 29, 2015 $9.99N/A (N/A/77%)50,000 .. 100,0000%00:00 (00:00)
17 PERFECT ANGLE: The puzzle game based on optical illusions Dec 22, 2015 $9.99N/A (N/A)50,000 .. 100,0000%00:00 (00:00)
18 Amazing Princess Sarah Aug 18, 2014 $4.99N/A (N/A)0 .. 20,0000%00:00 (00:00)
19 Jet Set Knights Jan 1, 2016 $9.99N/A (N/A)0 .. 20,0000%00:00 (00:00)
20 Ballad of Solar May 22, 2014 $6.99N/A (N/A)0 .. 20,0000%00:00 (00:00)
21 Link: The Unleashed Nexus Aug 21, 2015 $9.99N/A (N/A)0 .. 20,0000%00:00 (00:00)
22 Starship Theory Jul 4, 2017 $3.99N/A (N/A)50,000 .. 100,0000%00:00 (00:00)
23 Slip Apr 28, 2014 $3.99N/A (N/A)20,000 .. 50,0000%00:00 (00:00)
24 Monument Jun 5, 2015 $3.99N/A (N/A)20,000 .. 50,0000%00:00 (00:00)
25 Filthy Lucre Dec 11, 2016 $12.99N/A (N/A)0 .. 20,0000%00:00 (00:00)
26 Montas Mar 24, 2014 $9.99N/A (N/A)0 .. 20,0000%00:00 (00:00)
27 AdvertCity Apr 17, 2015 $19.99N/A (N/A)0 .. 20,0000%00:00 (00:00)
28 You Deserve Aug 19, 2016 $0.99N/A (N/A)20,000 .. 50,0000%00:00 (00:00)
29 Solar Flux Oct 24, 2013 $9.99N/A (N/A)100,000 .. 200,0000%00:00 (00:00)
30 Home is Where One Starts... May 12, 2015 $2.99N/A (N/A)20,000 .. 50,0000%00:00 (00:00)
31 ORCS May 20, 2016 $1.99N/A (N/A)20,000 .. 50,0000%00:00 (00:00)
32 Puddle Nov 9, 2012 $7.99N/A (N/A)100,000 .. 200,0000%00:00 (00:00)
33 Rats - Time is running out! Aug 19, 2015 $4.99N/A (N/A)50,000 .. 100,0000%00:00 (00:00)
34 Domino Sky Apr 5, 2016 $3.99N/A (N/A)0 .. 20,0000%00:00 (00:00)
35 Bloody Streets Mar 12, 2015 $4.99N/A (N/A)20,000 .. 50,0000%00:00 (00:00)
36 Binaries Apr 4, 2016 $9.99N/A (N/A)0 .. 20,0000%00:00 (00:00)
37 Cavern Kings Sep 30, 2014 $9.99N/A (N/A)0 .. 20,0000%00:00 (00:00)
38 Days Under Custody Nov 23, 2015 $4.99N/A (N/A)20,000 .. 50,0000%00:00 (00:00)
39 Curses 'N Chaos Aug 18, 2015 $9.99N/A (N/A)50,000 .. 100,0000%00:00 (00:00)
40 Wild Island Quest Sep 4, 2015 $0.49N/A (N/A)50,000 .. 100,0000%00:00 (00:00)
41 Phantom Soldier Mar 29, 2017 $4.99N/A (N/A)100,000 .. 200,0003.85%02:45 (03:18)
42 Stranded May 20, 2014 $0.99N/A (N/A)20,000 .. 50,0000%00:00 (00:00)
43 Mu Complex Oct 23, 2015 $8.99N/A (N/A)0 .. 20,0000%00:00 (00:00)
44 Zolg Dec 2, 2016 $0.99N/A (N/A)20,000 .. 50,0000%00:00 (00:00)
45 4PM Jul 9, 2014 $2.99N/A (N/A/41%)0 .. 20,0000%00:00 (00:00)
46 Season of 12 Colors Mar 14, 2016 $2.99N/A (N/A)20,000 .. 50,0002.56%01:38 (00:32)
47 Brave Dungeon Sep 2, 2016 $0.99N/A (N/A)50,000 .. 100,0000%00:00 (00:00)
48 Drifter Mar 4, 2014 $11.99N/A (N/A)20,000 .. 50,0000%00:00 (00:00)
49 In Space We Brawl Jul 17, 2015 $8.99N/A (N/A)0 .. 20,0000%00:00 (00:00)
50 DashBored Jun 13, 2016 $4.99N/A (N/A)0 .. 20,0000%00:00 (00:00)
51 Super Puzzle Platformer Deluxe May 24, 2013 $7.99N/A (N/A)50,000 .. 100,0000%00:00 (00:00)
52 An Octave Higher Mar 27, 2015 $11.99N/A (N/A)0 .. 20,0000%00:00 (00:00)
53 NORTH Apr 27, 2016 $1.99N/A (N/A)200,000 .. 500,0000%00:00 (00:00)
54 Tales From Space: Mutant Blobs Attack Aug 15, 2012 $7.99N/A (N/A/83%)100,000 .. 200,0000.32%02:00 (00:40)
55 Glorkian Warrior: The Trials Of Glork Mar 24, 2015 $3.99N/A (N/A)20,000 .. 50,0000%00:00 (00:00)
56 Amigdala Mar 28, 2016 $5.99N/A (N/A)20,000 .. 50,0000%00:00 (00:00)
57 Tulpa Jan 29, 2015 $9.99N/A (N/A)20,000 .. 50,0000%00:00 (00:00)
58 TurnOn Jun 1, 2016 $14.99N/A (N/A/67%)20,000 .. 50,0002.33%00:18 (00:06)
59 A City Sleeps Oct 16, 2014 $9.99N/A (N/A)20,000 .. 50,0000%00:00 (00:00)
60 1,000 Heads Among the Trees Dec 11, 2015 $6.99N/A (N/A)50,000 .. 100,0000%00:00 (00:00)
61 Boson X Sep 15, 2014 $2.99N/A (N/A)50,000 .. 100,0000%00:00 (00:00)
62 iZBOT Sep 1, 2015 $11.99N/A (N/A)0 .. 20,0002.22%02:36 (00:52)
63 Three Kingdoms: The Last Warlord | 三国志:汉末霸业 May 26, 2017 $16.99N/A (N/A)20,000 .. 50,0004.44%03:00 (02:00)
64 Vitrum Apr 22, 2014 $1.99N/A (N/A)20,000 .. 50,0000%00:00 (00:00)
65 Western Press Apr 21, 2016 $1.64N/A (N/A)50,000 .. 100,0000%00:00 (00:00)
66 Academagia: The Making of Mages Aug 13, 2010 $15.99N/A (N/A)0 .. 20,0000%00:00 (00:00)
67 Jones On Fire Mar 14, 2013 $2.99N/A (N/A)100,000 .. 200,0000%00:00 (00:00)
68 Broken Bots Jun 8, 2016 $6.99N/A (N/A)0 .. 20,0000%00:00 (00:00)
69 Dinosaur Forest May 17, 2017 $0.49N/A (N/A)100,000 .. 200,0006.56%03:28 (03:28)
70 Maia Nov 23, 2018 $24.99N/A (N/A)50,000 .. 100,0000%00:00 (00:00)
71 Beyond Eyes Aug 11, 2015 $14.99N/A (N/A/60%)100,000 .. 200,0000.36%00:01 (00:00)
72 Reflection of Mine Feb 24, 2017 $7.99N/A (N/A)0 .. 20,0000%00:00 (00:00)
73 Papo & Yo Apr 18, 2013 $14.99N/A (N/A/70%)200,000 .. 500,0000%00:00 (00:00)
74 Starship Traveller Mar 11, 2015 $4.99N/A (N/A)0 .. 20,0000%00:00 (00:00)
75 Emerge: Cities of the Apocalypse Apr 27, 2016 $7.99N/A (N/A)0 .. 20,0000%00:00 (00:00)
76 Critter Crunch Sep 11, 2012 $6.99N/A (N/A)50,000 .. 100,0000%00:00 (00:00)
77 Chronicles of a Dark Lord: Episode 1 Tides of Fate Complete Dec 19, 2014 $0.99N/A (N/A)50,000 .. 100,0000.44%00:01 (00:00)
78 Empire of the Gods May 13, 2008 $0.99N/A (N/A)20,000 .. 50,0000%00:00 (00:00)
79 Disorder Jan 12, 2015 $3.99N/A (N/A/61%)0 .. 20,0000%00:00 (00:00)
80 Heavy Gear Assault Feb 10, 2017 $39.99N/A (N/A)0 .. 20,0000%00:00 (00:00)
81 Back to Bed Aug 6, 2014 $5.99N/A (N/A)500,000 .. 1,000,0000.05%145:55 (48:38)
82 Shmadow Nov 3, 2015 $1.99N/A (N/A)20,000 .. 50,0001.2%00:02 (00:00)
83 Outrunner Apr 12, 2017 $0.99N/A (N/A)50,000 .. 100,0000%00:00 (00:00)
84 The Promised Land Apr 25, 2014 $6.99N/A (N/A)20,000 .. 50,0000%00:00 (00:00)
85 Dead In Bermuda Aug 27, 2015 $14.99N/A (N/A)20,000 .. 50,0000%00:00 (00:00)
86 99Vidas Dec 22, 2016 $12.99N/A (N/A/69%)20,000 .. 50,0000%00:00 (00:00)
87 Warring States Jan 29, 2018 $18.99N/A (N/A)0 .. 20,0000%00:00 (00:00)
88 Cosmophony Jul 9, 2015 $4.99N/A (N/A)0 .. 20,0000%00:00 (00:00)
89 Starship Annihilator Sep 2, 2016 $0.49N/A (N/A)50,000 .. 100,0001.63%01:45 (01:25)
90 Journal Feb 17, 2014 $9.99N/A (N/A/59%)20,000 .. 50,0000%00:00 (00:00)
91 Hare In The Hat Apr 1, 2015 $1.99N/A (N/A)20,000 .. 50,0000%00:00 (00:00)
92 Robot Legions Reborn Jul 19, 2016 $1.99N/A (N/A)20,000 .. 50,0000%00:00 (00:00)
93 Poöf Nov 8, 2013 $6.99N/A (N/A)20,000 .. 50,0000%00:00 (00:00)
94 Star Horizon May 28, 2015 $4.99N/A (N/A)20,000 .. 50,0000%00:00 (00:00)
95 Neon Space ULTRA Jun 1, 2016 $2.99N/A (N/A)50,000 .. 100,0000%00:00 (00:00)
96 All Zombies Must Die!: Scorepocalypse Apr 19, 2012 $4.99N/A (N/A)20,000 .. 50,0000%00:00 (00:00)
97 Countless Rooms of Death Jan 9, 2015 $0.99N/A (N/A)20,000 .. 50,0000%00:00 (00:00)
98 Cube Land Arena Mar 29, 2016 $0.99N/A (N/A)20,000 .. 50,0001.32%01:17 (00:43)
99 Amphora Nov 12, 2014 $13.99N/A (N/A)0 .. 20,0000%00:00 (00:00)
100 IMSCARED Jan 31, 2016 $3.99N/A (N/A)20,000 .. 50,0000%00:00 (00:00)
101 The Waste Land Sep 16, 2014 $9.99N/A (N/A)0 .. 20,0000%00:00 (00:00)
102 Dream Factory Nov 2, 2015 $9.99N/A (N/A)0 .. 20,0000%00:00 (00:00)
103 TRISTOY Jan 15, 2015 $6.99N/A (N/A/49%)20,000 .. 50,0000%00:00 (00:00)
104 Stardust Galaxy Warriors: Stellar Climax Nov 10, 2015 $9.99N/A (N/A)0 .. 20,0000%00:00 (00:00)
105 GORN Jul 10, 2017 $19.99N/A (N/A)100,000 .. 200,00017.86%01:37 (01:30)
106 Three Dead Zed Jul 7, 2014 $5.99N/A (N/A)50,000 .. 100,0000%00:00 (00:00)
107 Fortify Apr 8, 2016 $4.99N/A (N/A)0 .. 20,0000%00:00 (00:00)
108 VoxreD Sep 30, 2016 $0.99N/A (N/A)50,000 .. 100,0000%00:00 (00:00)
109 10 Second Ninja Mar 5, 2014 $1.99N/A (N/A/72%)50,000 .. 100,0000%00:00 (00:00)
110 Vernon's Legacy Sep 23, 2016 $11.99N/A (N/A)0 .. 20,0000%00:00 (00:00)
111 Aircraft War X Aug 5, 2016 $0.99N/A (N/A)100,000 .. 200,0000.34%01:52 (01:14)
112 FOTONICA Nov 6, 2014 $14.99N/A (N/A/71%)50,000 .. 100,0000.51%00:02 (00:00)
113 Orbit HD Mar 18, 2015 $1.99N/A (N/A)20,000 .. 50,0000%00:00 (00:00)
114 Amulet of Dreams Jun 3, 2016 $6.99N/A (N/A)0 .. 20,0000%00:00 (00:00)
115 Dream Jul 31, 2015 $8.99N/A (N/A/59%)50,000 .. 100,0000%00:00 (00:00)
116 Beyond Sol Oct 13, 2015 $9.99N/A (N/A/83%)0 .. 20,0000%00:00 (00:00)
117 OPUS: The Day We Found Earth Apr 21, 2016 $8.99N/A (N/A)20,000 .. 50,0000%00:00 (00:00)
118 BIT.TRIP BEAT Nov 2, 2010 $9.99N/A (N/A)200,000 .. 500,0000.26%02:31 (00:50)
119 Four Sided Fantasy Aug 30, 2016 $9.99N/A (N/A)0 .. 20,0000%00:00 (00:00)
120 Mindless Running Feb 22, 2016 $0.99N/A (N/A)50,000 .. 100,0000.44%02:55 (00:58)
121 iO Dec 5, 2014 $4.99N/A (N/A)50,000 .. 100,0000%00:00 (00:00)
122 Planet Diver Nov 30, 2015 $3.99N/A (N/A)0 .. 20,0000%00:00 (00:00)
123 NEON STRUCT May 20, 2015 $17.99N/A (N/A/62%)50,000 .. 100,0000.76%00:25 (00:08)
124 Moonbase 332 May 20, 2015 $4.99N/A (N/A)20,000 .. 50,0000%00:00 (00:00)
125 TownCraft Feb 25, 2015 $9.99N/A (N/A)0 .. 20,0000%00:00 (00:00)
126 Aviary Attorney Dec 21, 2015 $14.99N/A (N/A/77%)50,000 .. 100,0000.15%00:01 (00:00)
127 Witch It May 31, 2017 $14.99N/A (N/A)100,000 .. 200,0003.78%01:05 (00:53)
128 Rabbit Hole 3D: Steam Edition Apr 25, 2014 $2.99N/A (N/A)50,000 .. 100,0000%00:00 (00:00)
129 Shoot 1UP Sep 23, 2015 $3.99N/A (N/A)0 .. 20,0000%00:00 (00:00)
130 Deisim Dec 19, 2016 $7.99N/A (N/A)0 .. 20,0000%00:00 (00:00)
131 STARWHAL Sep 29, 2014 $11.99N/A (N/A)50,000 .. 100,0000.97%00:10 (00:06)
132 Kiai Resonance Apr 21, 2015 $4.99N/A (N/A)20,000 .. 50,0002.5%00:18 (00:06)
133 Bye-Bye, Wacky Planet Nov 4, 2016 $6.99N/A (N/A)200,000 .. 500,0000%00:00 (00:00)
134 The Novelist Dec 10, 2013 $9.99N/A (N/A/66%)100,000 .. 200,0000.36%01:59 (00:39)
135 Bunker - The Underground Game May 21, 2015 $3.99N/A (N/A/70%)0 .. 20,0000%00:00 (00:00)
136 Deathwave Jun 9, 2016 $4.99N/A (N/A)0 .. 20,0000%00:00 (00:00)
137 Unmechanical Aug 8, 2012 $9.99N/A (N/A/74%)50,000 .. 100,0000%00:00 (00:00)
138 stratO Jun 1, 2015 $4.99N/A (N/A)0 .. 20,0000%00:00 (00:00)
139 Brute May 17, 2017 $6.99N/A (N/A)0 .. 20,0000%00:00 (00:00)
140 Phoenix Force Nov 13, 2014 $3.99N/A (N/A)50,000 .. 100,0000%00:00 (00:00)
141 Tiny Guardians Mar 24, 2016 $9.99N/A (N/A)0 .. 20,0000%00:00 (00:00)
142 Velocibox Sep 8, 2014 $7.99N/A (N/A)50,000 .. 100,0000.95%00:02 (00:01)
143 Timber and Stone Oct 20, 2015 $12.99N/A (N/A)20,000 .. 50,0000%00:00 (00:00)
144 Concursion Jun 6, 2014 $4.99N/A (N/A/66%)20,000 .. 50,0000%00:00 (00:00)
145 Deserter Simulator Jul 30, 2015 $9.99N/A (N/A)0 .. 20,0000%00:00 (00:00)
146 News Tycoon Mar 24, 2017 $6.99N/A (N/A)0 .. 20,0000%00:00 (00:00)
147 Starship Corporation May 3, 2018 $19.99N/A (N/A)50,000 .. 100,0000%00:00 (00:00)
148 Untamed: Life Of A Cougar Aug 27, 2015 $14.99N/A (N/A)0 .. 20,0000%00:00 (00:00)
149 BoomTown! Deluxe Oct 14, 2016 $1.99N/A (N/A)20,000 .. 50,0000%00:00 (00:00)
150 Dwelvers Sep 11, 2014 $14.99N/A (N/A)0 .. 20,0000%00:00 (00:00)
151 Dustbowl May 18, 2015 $8.99N/A (N/A)0 .. 20,0000%00:00 (00:00)
152 Wheels of Aurelia Sep 20, 2016 $9.99N/A (N/A/63%)0 .. 20,0000%00:00 (00:00)
153 Gentlemen! Nov 5, 2013 $4.99N/A (N/A)20,000 .. 50,0000%00:00 (00:00)
154 Soccer Rage Jun 2, 2015 $9.99N/A (N/A)0 .. 20,0000%00:00 (00:00)
155 Overhell May 27, 2016 $1.99N/A (N/A)200,000 .. 500,0000.1%05:04 (01:41)
156 Bad Hotel Oct 16, 2013 $4.99N/A (N/A)50,000 .. 100,0000%00:00 (00:00)
157 Copy Kitty Apr 19, 2018 $14.99N/A (N/A)0 .. 20,0000%00:00 (00:00)
158 Wrath of Anna Apr 2, 2018 $19.99N/A (N/A)20,000 .. 50,0000%00:00 (00:00)
159 Super Splatters Jun 26, 2013 $9.99N/A (N/A/73%)100,000 .. 200,0000%00:00 (00:00)
160 Bermuda Mar 17, 2015 $2.99N/A (N/A)50,000 .. 100,0000%00:00 (00:00)
161 Mimpi Dreams Mar 22, 2016 FreeN/A (N/A)20,000 .. 50,0000%00:00 (00:00)
162 Horizon Shift May 29, 2015 $4.99N/A (N/A)200,000 .. 500,0000%00:00 (00:00)
163 Cosmic Leap Mar 17, 2016 $0.99N/A (N/A)20,000 .. 50,0000%00:00 (00:00)
164 SEAL Team 12 Mar 18, 2015 $1.99N/A (N/A)0 .. 20,0000%00:00 (00:00)
165 Dragon's Wake Dec 10, 2015 $3.99N/A (N/A)0 .. 20,0002.33%01:25 (00:28)
166 Dreaming Sarah Mar 12, 2015 $5.99N/A (N/A)200,000 .. 500,0000.38%02:06 (02:53)
167 none Nov 4, 2015 N/AN/A (N/A)20,000 .. 50,0000%00:00 (00:00)
168 Introvert Quest Mar 15, 2017 $0.49N/A (N/A)200,000 .. 500,0000%00:00 (00:00)
169 Kromaia Oct 23, 2014 $19.99N/A (N/A/68%)20,000 .. 50,0000%00:00 (00:00)
170 Impossiball Aug 8, 2017 $0.99N/A (N/A)0 .. 20,0000%00:00 (00:00)
171 The Gleam: VR Escape the Room Oct 14, 2016 $3.99N/A (N/A)100,000 .. 200,0000%00:00 (00:00)
172 Final Rush Nov 21, 2014 $4.99N/A (N/A)20,000 .. 50,0000%00:00 (00:00)
173 Spellsworn Mar 13, 2018 FreeN/A (N/A)100,000 .. 200,0000.88%00:28 (00:22)
174 Bohemian Killing Jul 21, 2016 $12.99N/A (N/A/55%)0 .. 20,0001.37%02:21 (00:47)
175 Knytt Underground Oct 25, 2013 $6.99N/A (N/A)50,000 .. 100,0000%00:00 (00:00)
176 Miner Warfare Apr 6, 2012 $2.99N/A (N/A)0 .. 20,0000%00:00 (00:00)
177 New Retro Arcade: Neon Aug 1, 2016 $19.99N/A (N/A)20,000 .. 50,0000%00:00 (00:00)
178 Sugar Cube: Bittersweet Factory Nov 7, 2012 $6.99N/A (N/A)20,000 .. 50,0000%00:00 (00:00)
179 Shipwreck Feb 13, 2015 $2.99N/A (N/A)0 .. 20,0000%00:00 (00:00)
180 Hero Quest: Tower Conflict Apr 13, 2016 $0.99N/A (N/A)200,000 .. 500,0000%00:00 (00:00)
181 Marvin's Mittens Dec 17, 2014 $5.99N/A (N/A)0 .. 20,0000%00:00 (00:00)
182 Doodle Kingdom Jun 9, 2016 $1.7N/A (N/A)20,000 .. 50,0000%00:00 (00:00)
183 Supreme: Pizza Empire Jan 9, 2015 $9.99N/A (N/A)0 .. 20,0000%00:00 (00:00)
184 Fist Slash: Of Ultimate Fury Dec 10, 2015 $3.99N/A (N/A)0 .. 20,0000%00:00 (00:00)
185 Echo of the Wilds Jun 10, 2014 $8.99N/A (N/A)20,000 .. 50,0000%00:00 (00:00)
186 Redemption: Eternal Quest Aug 28, 2015 $1.99N/A (N/A)100,000 .. 200,0000%00:00 (00:00)
187 Open Sorcery Feb 22, 2017 $3.99N/A (N/A)0 .. 20,0000%00:00 (00:00)
188 Uriel's Chasm Sep 12, 2014 $4.99N/A (N/A)200,000 .. 500,0000%00:00 (00:00)
189 Sky Rogue Aug 24, 2017 $19.99N/A (N/A)20,000 .. 50,0005.56%00:28 (00:18)
190 Son of a Witch May 16, 2018 $14.99N/A (N/A)0 .. 20,00015.38%01:35 (01:02)
191 Labyrinthine Dreams May 26, 2015 $1.99N/A (N/A)50,000 .. 100,0000%00:00 (00:00)
192 Pixel Star May 22, 2015 $2.99N/A (N/A)20,000 .. 50,0000%00:00 (00:00)
193 Showdown Adventure Sep 21, 2016 $2.99N/A (N/A)0 .. 20,0000%00:00 (00:00)
194 Escape Goat 2 Mar 24, 2014 $9.99N/A (N/A/76%)50,000 .. 100,0001.67%03:13 (02:08)
195 Big Action Mega Fight! Jan 12, 2016 $1.99N/A (N/A)20,000 .. 50,0003.03%02:17 (01:31)
196 Beater Spirit Jun 1, 2016 $5.99N/A (N/A)100,000 .. 200,0000%00:00 (00:00)
197 Godus N/AN/A (N/A)50,000 .. 100,0000%00:00 (00:00)
198 BlastZone 2 Feb 19, 2015 $9.99N/A (N/A)20,000 .. 50,0000%00:00 (00:00)
199 Snooker Nation Championship Apr 27, 2016 $3.99N/A (N/A)0 .. 20,0000%00:00 (00:00)
200 Ms. Splosion Man Apr 3, 2013 $9.99N/A (N/A)50,000 .. 100,0000%00:00 (00:00)
201 Subsiege Sep 7, 2018 $19.99N/A (N/A)0 .. 20,0000%00:00 (00:00)
202 Bunker Punks May 28, 2018 $14.99N/A (N/A)0 .. 20,0005.56%03:27 (01:09)
203 Instant Dungeon! Nov 25, 2014 $1.99N/A (N/A)0 .. 20,0000%00:00 (00:00)
204 Godus Wars Feb 3, 2016 $14.99N/A (N/A)100,000 .. 200,0000%00:00 (00:00)
205 Heroes Rise: HeroFall Jul 11, 2014 $3.99N/A (N/A)0 .. 20,0000%00:00 (00:00)
206 Kitchen Simulator 2015 Sep 4, 2015 $0.99N/A (N/A)50,000 .. 100,0000%00:00 (00:00)
207 Captain Forever Remix Jun 3, 2016 $14.99N/A (N/A)20,000 .. 50,0000%00:00 (00:00)
208 Stray Cat Crossing Aug 28, 2015 $2.99N/A (N/A)20,000 .. 50,0000%00:00 (00:00)
209 Distant Space Dec 20, 2016 $0.99N/A (N/A)50,000 .. 100,0000%00:00 (00:00)
210 ReignMaker Apr 16, 2014 $14.99N/A (N/A)50,000 .. 100,0000.26%00:18 (00:06)
211 Tin Star Feb 21, 2014 $4.99N/A (N/A)0 .. 20,0000%00:00 (00:00)
212 Night Forest Nov 8, 2016 $1.99N/A (N/A)100,000 .. 200,0000.19%05:57 (01:59)
213 Full Bore May 6, 2014 $14.99N/A (N/A/72%)20,000 .. 50,0001.59%02:59 (01:59)
214 Luna Sky Oct 2, 2015 $12.99N/A (N/A)50,000 .. 100,0000%00:00 (00:00)
215 Pixel Cup Soccer 17 Aug 4, 2016 $9.99N/A (N/A)0 .. 20,0003.85%00:01 (00:00)
216 Omegalodon Sep 20, 2013 $9.99N/A (N/A)20,000 .. 50,0000%00:00 (00:00)
217 NEO AQUARIUM - The King of Crustaceans - Jun 8, 2015 $8.99N/A (N/A)20,000 .. 50,0000%00:00 (00:00)
218 Can't Drive This Sep 25, 2016 $9.99N/A (N/A)0 .. 20,0000%00:00 (00:00)
219 Party of Sin Dec 13, 2012 $5.99N/A (N/A)50,000 .. 100,0000%00:00 (00:00)
220 It came from space, and ate our brains Mar 19, 2015 $9.99N/A (N/A)50,000 .. 100,0000%00:00 (00:00)
221 CrazyCars3D Mar 28, 2016 $2.99N/A (N/A)100,000 .. 200,0000%00:00 (00:00)
222 A Druid's Duel Feb 25, 2015 $7.99N/A (N/A/70%)0 .. 20,0000%00:00 (00:00)
223 Rencounter Nov 4, 2016 $0.59N/A (N/A)20,000 .. 50,0000%00:00 (00:00)
224 Squishy the Suicidal Pig Oct 23, 2014 $5.99N/A (N/A)200,000 .. 500,0000.14%02:15 (00:45)
225 The Purring Quest Nov 12, 2015 $9.99N/A (N/A)50,000 .. 100,0000.61%01:01 (00:20)
226 POP: Methodology Experiment One Dec 10, 2014 $3.99N/A (N/A)0 .. 20,0000%00:00 (00:00)
227 Angry Arrows Aug 12, 2015 $4.99N/A (N/A)0 .. 20,0000%00:00 (00:00)
228 The Quest for Achievements Apr 7, 2017 $4.99N/A (N/A)50,000 .. 100,0000%00:00 (00:00)
229 Cosmochoria Apr 27, 2015 $9.99N/A (N/A)20,000 .. 50,0000%00:00 (00:00)
230 Orion Trail Oct 12, 2015 $7.99N/A (N/A)0 .. 20,0000%00:00 (00:00)
231 Pixel Gladiator Sep 8, 2017 $4.99N/A (N/A)20,000 .. 50,0000%00:00 (00:00)
232 Pulstar Jun 11, 2014 $1.99N/A (N/A)20,000 .. 50,0000%00:00 (00:00)
233 Tobari and the Night of the Curious Moon Aug 11, 2012 $9.99N/A (N/A)0 .. 20,0000%00:00 (00:00)
234 Joana's Life Sep 1, 2016 $5.99N/A (N/A)20,000 .. 50,0000%00:00 (00:00)
235 Signal Ops Nov 18, 2013 $9.99N/A (N/A/61%)0 .. 20,0000%00:00 (00:00)
236 Inside My Radio May 11, 2015 $14.99N/A (N/A/68%)20,000 .. 50,0000%00:00 (00:00)
237 Star Drifter Jun 1, 2016 $0.99N/A (N/A)200,000 .. 500,0000%00:00 (00:00)
238 Wake Jul 4, 1970 $4.99N/A (N/A)0 .. 20,0000%00:00 (00:00)
239 Scribble Space Jun 1, 2015 $1.99N/A (N/A)20,000 .. 50,0000%00:00 (00:00)
240 Trouble Witches Origin - Episode1 Daughters of Amalgam - Nov 21, 2016 $9.99N/A (N/A)0 .. 20,0000%00:00 (00:00)
241 SOL: Exodus Jan 25, 2012 $7.99N/A (N/A/57%)50,000 .. 100,0000%00:00 (00:00)
242 Ukrainian Ninja Dec 23, 2014 FreeN/A (N/A)0 .. 20,0000%00:00 (00:00)
243 Guns of Infinity Mar 29, 2016 $4.99N/A (N/A)0 .. 20,0000%00:00 (00:00)
244 Super Life of Pixel Oct 22, 2014 $9.99N/A (N/A)20,000 .. 50,0000%00:00 (00:00)
245 Bell Ringer Mar 6, 2016 $6.99N/A (N/A)100,000 .. 200,0000.3%00:36 (00:12)
246 Mega Coin Squad Aug 15, 2014 $14.99N/A (N/A/56%)0 .. 20,0000%00:00 (00:00)
247 ChargeShot Sep 18, 2015 $9.99N/A (N/A)20,000 .. 50,0000%00:00 (00:00)
248 Frederic: Resurrection of Music May 16, 2014 $2.99N/A (N/A)100,000 .. 200,0000.46%04:30 (02:59)
249 Super Trench Attack 2 Nov 6, 2015 $4.99N/A (N/A)20,000 .. 50,0000%00:00 (00:00)
250 Child Phobia: Nightcoming Fears Dec 20, 2016 $1.99N/A (N/A)0 .. 20,0000%00:00 (00:00)
251 Autocraft Sep 20, 2017 $9.99N/A (N/A)20,000 .. 50,0004.35%01:24 (00:47)
252 Pizza Express Jun 25, 2015 $6.99N/A (N/A)20,000 .. 50,0001.39%04:32 (01:30)
253 Please, Don't Touch Anything 3D Dec 7, 2016 $9.99N/A (N/A)20,000 .. 50,0000%00:00 (00:00)
254 A-Men Jan 24, 2014 $9.99N/A (N/A)0 .. 20,0000%00:00 (00:00)
255 Interstellar Rift Jun 23, 2015 $18.99N/A (N/A)20,000 .. 50,0000%00:00 (00:00)
256 Alteric Jul 13, 2016 $3.99N/A (N/A)0 .. 20,0000%00:00 (00:00)
257 Escape Goat Oct 9, 2013 $4.99N/A (N/A)20,000 .. 50,0000%00:00 (00:00)
258 Reign of Bullets Aug 19, 2015 $9.99N/A (N/A)0 .. 20,0000%00:00 (00:00)
259 Angel Express [Tokkyu Tenshi] Jul 15, 2016 $9.99N/A (N/A)0 .. 20,0000%00:00 (00:00)
260 Home Aug 31, 2012 $2.99N/A (N/A/69%)200,000 .. 500,0000.22%00:01 (00:00)
261 Disillusions Manga Horror Jan 16, 2015 $0.99N/A (N/A)20,000 .. 50,0000%00:00 (00:00)
262 MetaTron Dec 19, 2016 N/AN/A (N/A)0 .. 20,0000%00:00 (00:00)
263 Dwarf Tower Dec 23, 2014 $0.99N/A (N/A)20,000 .. 50,0000%00:00 (00:00)
264 Evertown Jan 12, 2016 $2.99N/A (N/A)0 .. 20,0000%00:00 (00:00)
265 Great Permutator Sep 15, 2014 $6.99N/A (N/A)20,000 .. 50,0000%00:00 (00:00)
266 Perraw - FPS Clone War Alpha Jan 29, 2016 $0.99N/A (N/A)0 .. 20,0000%00:00 (00:00)
267 Oblitus Feb 27, 2015 $14.99N/A (N/A/69%)0 .. 20,0004.35%00:34 (00:11)
268 The Musketeers: Victoria's Quest Jan 7, 2014 $3.99N/A (N/A)0 .. 20,0000%00:00 (00:00)
269 Monolith Jun 7, 2017 $7.99N/A (N/A/83%)20,000 .. 50,00012.5%01:53 (01:35)
270 Arson and Plunder: Unleashed Sep 25, 2015 $4.99N/A (N/A)20,000 .. 50,0000%00:00 (00:00)
271 Action Alien Jun 26, 2015 $0.79N/A (N/A)50,000 .. 100,0000.68%03:41 (02:27)
272 Snake Pass Mar 28, 2017 $19.99N/A (N/A/71%)50,000 .. 100,0000.15%00:36 (00:12)
273 Imagine Earth May 20, 2014 $19.99N/A (N/A)20,000 .. 50,0000%00:00 (00:00)
274 Polyball Dec 1, 2017 $14.99N/A (N/A)0 .. 20,0000%00:00 (00:00)
275 Pinkman Jan 16, 2017 $0.99N/A (N/A)0 .. 20,0000%00:00 (00:00)
276 Survivor Squad Jan 21, 2015 $2.99N/A (N/A)100,000 .. 200,0000%00:00 (00:00)
277 Gryphon Knight Epic Aug 20, 2015 $6.99N/A (N/A/55%)20,000 .. 50,0000%00:00 (00:00)
278 Call Of The Mighty Warriors Jun 2, 2016 $0.99N/A (N/A)20,000 .. 50,0000%00:00 (00:00)
279 Zack Zero Apr 29, 2013 $2.99N/A (N/A)50,000 .. 100,0000%00:00 (00:00)
280 Reflections Jun 26, 2015 $9.99N/A (N/A)0 .. 20,0000%00:00 (00:00)
281 Blade Ballet Aug 9, 2016 $14.99N/A (N/A)0 .. 20,0000%00:00 (00:00)
282 Titan Attacks! Feb 3, 2012 $9.99N/A (N/A)100,000 .. 200,0000.41%00:11 (00:03)
283 TIMEframe Jul 7, 2015 $5.99N/A (N/A)100,000 .. 200,0000%00:00 (00:00)
284 Share May 3, 2016 $0.99N/A (N/A)20,000 .. 50,0000%00:00 (00:00)
285 Traverser Jul 9, 2015 $14.99N/A (N/A/61%)0 .. 20,0004.35%00:01 (00:00)
286 Space Moth DX Jan 22, 2016 $4.99N/A (N/A)20,000 .. 50,0000%00:00 (00:00)
287 OTTTD Aug 6, 2014 $7.99N/A (N/A)50,000 .. 100,0000.93%00:01 (00:00)
288 Press X to Not Die Oct 6, 2017 $2.99N/A (N/A)50,000 .. 100,0004.6%01:00 (01:19)
289 Frederic: Evil Strikes Back May 23, 2014 $7.99N/A (N/A)100,000 .. 200,0000.73%03:59 (03:59)
290 A.I. Invasion Sep 30, 2015 $9.99N/A (N/A)0 .. 20,0002.78%02:01 (00:40)
291 Mistwood Heroes Dec 30, 2016 $0.99N/A (N/A)20,000 .. 50,0000%00:00 (00:00)
292 Actual Sunlight Apr 3, 2014 $4.99N/A (N/A/77%)20,000 .. 50,0000%00:00 (00:00)
293 Football, Tactics & Glory Jun 1, 2018 $19.99N/A (N/A)20,000 .. 50,0002.44%01:54 (00:38)
294 mr.President Prologue Episode Sep 20, 2016 $0.99N/A (N/A)50,000 .. 100,0000%00:00 (00:00)
295 Imagine Me Dec 9, 2014 $2.99N/A (N/A)50,000 .. 100,0000%00:00 (00:00)
296 Transcendence Jul 24, 2015 $8.99N/A (N/A)0 .. 20,0000%00:00 (00:00)
297 The Dark Legions Apr 1, 2004 $1.99N/A (N/A)0 .. 20,0000%00:00 (00:00)
298 Gravity Ghost Jan 26, 2015 $14.99N/A (N/A/75%)0 .. 20,0000%00:00 (00:00)
299 Leo’s Fortune - HD Edition Sep 8, 2015 $6.99N/A (N/A)0 .. 20,0008.33%05:22 (01:47)
300 The Nest Jun 14, 2016 FreeN/A (N/A)0 .. 20,0000%00:00 (00:00)
301 Ultratron Mar 18, 2013 $9.99N/A (N/A)50,000 .. 100,0000.61%00:01 (00:00)
302 Three Fourths Home: Extended Edition Mar 20, 2015 $4.99N/A (N/A/77%)20,000 .. 50,0000%00:00 (00:00)
303 Mainlining Jan 26, 2017 $9.99N/A (N/A/73%)0 .. 20,0000%00:00 (00:00)
304 Ephemerid: A Musical Adventure Feb 3, 2015 $1.99N/A (N/A)0 .. 20,0000%00:00 (00:00)
305 Flobe Jan 23, 2016 $0.99N/A (N/A)0 .. 20,0000%00:00 (00:00)
306 Chariot Nov 12, 2014 $14.99N/A (N/A/76%)50,000 .. 100,0000%00:00 (00:00)
307 Faron's Fate Aug 14, 2015 $3.99N/A (N/A)0 .. 20,0000%00:00 (00:00)
308 Iron Fisticle Sep 16, 2014 $8.99N/A (N/A)0 .. 20,0000%00:00 (00:00)
309 Void Invaders Aug 14, 2015 $2.99N/A (N/A)20,000 .. 50,0000%00:00 (00:00)
310 Guns of Icarus Alliance Mar 31, 2017 $14.99N/A (N/A)200,000 .. 500,0000.06%00:32 (00:16)
311 Road Not Taken Aug 5, 2014 $14.99N/A (N/A/75%)20,000 .. 50,0000%00:00 (00:00)
312 8Bit Fiesta Sep 30, 2016 FreeN/A (N/A)0 .. 20,0001.79%00:59 (00:19)
313 Sleight Nov 9, 2016 $0.99N/A (N/A)100,000 .. 200,0000%00:00 (00:00)
314 T.E.C. 3001 Apr 11, 2014 N/AN/A (N/A)20,000 .. 50,0000%00:00 (00:00)
315 Mysterious Space May 15, 2015 $10N/A (N/A)0 .. 20,0000%00:00 (00:00)
316 Intensive Exposure Sep 6, 2016 $4.99N/A (N/A)0 .. 20,0000%00:00 (00:00)
317 Montague's Mount Nov 19, 2013 $4.99N/A (N/A/39%)20,000 .. 50,0000%00:00 (00:00)
318 Luckslinger Jul 16, 2015 $9.99N/A (N/A/76%)0 .. 20,0000%00:00 (00:00)
319 Karma Miwa Aug 12, 2016 $1.99N/A (N/A)20,000 .. 50,0000%00:00 (00:00)
320 Element4l May 24, 2013 $8.99N/A (N/A/77%)50,000 .. 100,0000%00:00 (00:00)
321 Farlight Explorers Feb 1, 2019 $14.99N/A (N/A)0 .. 20,0000%00:00 (00:00)
322 Dashy Square Apr 26, 2016 $2.99N/A (N/A)0 .. 20,0000%00:00 (00:00)
323 BIT.TRIP CORE Oct 2, 2012 $9.99N/A (N/A)20,000 .. 50,0000%00:00 (00:00)
324 Tomb of Tyrants Jun 25, 2015 $7.99N/A (N/A)20,000 .. 50,0001.47%00:45 (00:15)
325 Cubium Dreams Apr 29, 2016 $3.99N/A (N/A)200,000 .. 500,0000%00:00 (00:00)
326 The Deer God Feb 27, 2015 $14.99N/A (N/A/59%)20,000 .. 50,0000.85%00:10 (00:03)
327 MetaHuman Inc. Dec 18, 2015 $6.99N/A (N/A)0 .. 20,0000%00:00 (00:00)
328 The Masterplan Jun 4, 2015 $19.99N/A (N/A/68%)50,000 .. 100,0000%00:00 (00:00)
329 Club Life Apr 13, 2016 $11.99N/A (N/A)20,000 .. 50,0000%00:00 (00:00)
330 Rhythm Destruction Jun 16, 2014 $4.99N/A (N/A)50,000 .. 100,0000%00:00 (00:00)
331 Earth Overclocked Dec 4, 2015 $9.99N/A (N/A)20,000 .. 50,0000%00:00 (00:00)
332 Project LUX Feb 2, 2018 $24.99N/A (N/A)0 .. 20,0000%00:00 (00:00)
333 Volt Apr 14, 2014 $0.99N/A (N/A)50,000 .. 100,0000%00:00 (00:00)
334 The Adventures of Mr. Bobley Jun 30, 2015 $3.99N/A (N/A)50,000 .. 100,0000.64%02:00 (00:40)
335 AIRHEART - Tales of broken Wings Jul 24, 2018 $14.99N/A (N/A/62%)0 .. 20,0000%00:00 (00:00)
336 Procyon Feb 26, 2014 $3.99N/A (N/A)20,000 .. 50,0000%00:00 (00:00)
337 BRAWL Aug 13, 2015 $14.99N/A (N/A)0 .. 20,0000%00:00 (00:00)
338 Too Angry to Space Aug 8, 2016 $0.49N/A (N/A)0 .. 20,0000%00:00 (00:00)
339 Constant C Mar 11, 2014 $9.99N/A (N/A/60%)20,000 .. 50,0000%00:00 (00:00)
340 Centauri Sector Jun 24, 2015 $4.99N/A (N/A)20,000 .. 50,0000%00:00 (00:00)
341 Scanner Sombre Apr 26, 2017 $5.99N/A (N/A/67%)100,000 .. 200,0000.51%00:33 (00:16)
342 Cargo Commander Nov 1, 2012 $2.99N/A (N/A)100,000 .. 200,0000.34%00:10 (00:03)
343 The Cursed Forest Sep 11, 2015 $10.99N/A (N/A)0 .. 20,0000%00:00 (00:00)
344 StarsOne Apr 8, 2016 $9.99N/A (N/A)20,000 .. 50,0000%00:00 (00:00)
345 Sky Mercenaries Dec 16, 2014 $9.99N/A (N/A)20,000 .. 50,0000%00:00 (00:00)
346 10 Second Ninja X Jul 19, 2016 $9.99N/A (N/A)20,000 .. 50,0001.61%00:04 (00:01)
347 Ninja Pizza Girl Sep 30, 2015 $6.99N/A (N/A/82%)100,000 .. 200,0000%00:00 (00:00)
348 Morphine Oct 26, 2015 $2.99N/A (N/A)20,000 .. 50,0000%00:00 (00:00)
349 Fancy Skulls Jun 16, 2014 $8.99N/A (N/A)50,000 .. 100,0000%00:00 (00:00)
350 Blaster Shooter GunGuy! Aug 10, 2015 $1.99N/A (N/A)100,000 .. 200,0000%00:00 (00:00)
351 The Archotek Project Apr 28, 2017 $4.99N/A (N/A)50,000 .. 100,0000.09%00:24 (00:15)

Tags over time:

Access restricted.

This feature is only available to users with special access rights. Sorry.

If you want to proceed, you need to register or log in first and then back Steam Spy on Patreon. Look for Indie or Pro pledge.

Don't forget to use the same email as on Steam Spy!

Owners of this game also own:

Access restricted.

This feature is only available to users with special access rights. Sorry.

If you want to proceed, you need to register or log in first and then back Steam Spy on Patreon. Look for Indie or Pro pledge.

Don't forget to use the same email as on Steam Spy!

Playtime distribution:

Access restricted.

This feature is only available to users with special access rights. Sorry.

If you want to proceed, you need to register or log in first and then back Steam Spy on Patreon. Look for Indie or Pro pledge.

Don't forget to use the same email as on Steam Spy!

Playtime (2 weeks):

Access restricted.

This feature is only available to users with special access rights. Sorry.

If you want to proceed, you need to register or log in first and then back Steam Spy on Patreon. Look for Indie or Pro pledge.

Don't forget to use the same email as on Steam Spy!

User reviews:

Login required.

Please register or log in to see this information.